sensor_id;sensor_type;location;lat;lon;timestamp;P1;durP1;ratioP1;P2;durP2;ratioP2
37777;SDS011;23615;51.506;7.678;2023-06-10T00:01:08;3.63;;;3.42;;
37777;SDS011;23615;51.506;7.678;2023-06-10T00:03:34;5.07;;;4.63;;
37777;SDS011;23615;51.506;7.678;2023-06-10T00:05:59;3.87;;;3.57;;
37777;SDS011;23615;51.506;7.678;2023-06-10T00:08:24;4.13;;;3.73;;
37777;SDS011;23615;51.506;7.678;2023-06-10T00:10:50;5.28;;;4.88;;
37777;SDS011;23615;51.506;7.678;2023-06-10T00:13:15;4.10;;;3.80;;
37777;SDS011;23615;51.506;7.678;2023-06-10T00:15:41;3.93;;;3.63;;
37777;SDS011;23615;51.506;7.678;2023-06-10T00:18:06;5.00;;;4.50;;
37777;SDS011;23615;51.506;7.678;2023-06-10T00:20:35;5.53;;;5.13;;
37777;SDS011;23615;51.506;7.678;2023-06-10T00:23:02;4.20;;;3.83;;
37777;SDS011;23615;51.506;7.678;2023-06-10T00:25:28;5.50;;;5.00;;
37777;SDS011;23615;51.506;7.678;2023-06-10T00:27:53;5.00;;;4.60;;
37777;SDS011;23615;51.506;7.678;2023-06-10T00:30:20;5.00;;;4.57;;
37777;SDS011;23615;51.506;7.678;2023-06-10T00:32:46;5.40;;;4.90;;
37777;SDS011;23615;51.506;7.678;2023-06-10T00:35:11;4.87;;;4.40;;
37777;SDS011;23615;51.506;7.678;2023-06-10T00:37:36;4.87;;;4.57;;
37777;SDS011;23615;51.506;7.678;2023-06-10T00:40:03;4.30;;;4.00;;
37777;SDS011;23615;51.506;7.678;2023-06-10T00:42:29;4.63;;;4.22;;
37777;SDS011;23615;51.506;7.678;2023-06-10T00:44:55;4.33;;;3.93;;
37777;SDS011;23615;51.506;7.678;2023-06-10T00:47:21;4.50;;;4.10;;
37777;SDS011;23615;51.506;7.678;2023-06-10T00:49:47;4.55;;;4.15;;
37777;SDS011;23615;51.506;7.678;2023-06-10T00:52:14;5.45;;;4.95;;
37777;SDS011;23615;51.506;7.678;2023-06-10T00:54:41;4.78;;;4.38;;
37777;SDS011;23615;51.506;7.678;2023-06-10T00:57:06;5.23;;;4.73;;
37777;SDS011;23615;51.506;7.678;2023-06-10T00:59:32;5.07;;;4.65;;
37777;SDS011;23615;51.506;7.678;2023-06-10T01:01:57;4.72;;;4.30;;
37777;SDS011;23615;51.506;7.678;2023-06-10T01:04:23;4.10;;;3.80;;
37777;SDS011;23615;51.506;7.678;2023-06-10T01:09:40;4.20;;;3.90;;
37777;SDS011;23615;51.506;7.678;2023-06-10T01:12:19;4.57;;;4.20;;
37777;SDS011;23615;51.506;7.678;2023-06-10T01:14:46;5.07;;;4.68;;
37777;SDS011;23615;51.506;7.678;2023-06-10T01:17:13;4.60;;;4.20;;
37777;SDS011;23615;51.506;7.678;2023-06-10T01:19:41;4.85;;;4.40;;
37777;SDS011;23615;51.506;7.678;2023-06-10T01:22:08;4.43;;;4.13;;
37777;SDS011;23615;51.506;7.678;2023-06-10T01:24:35;4.53;;;4.22;;
37777;SDS011;23615;51.506;7.678;2023-06-10T01:27:02;4.80;;;4.35;;
37777;SDS011;23615;51.506;7.678;2023-06-10T01:29:41;4.68;;;4.38;;
37777;SDS011;23615;51.506;7.678;2023-06-10T01:35:15;5.03;;;4.63;;
37777;SDS011;23615;51.506;7.678;2023-06-10T01:37:43;5.03;;;4.63;;
37777;SDS011;23615;51.506;7.678;2023-06-10T01:40:11;4.35;;;4.03;;
37777;SDS011;23615;51.506;7.678;2023-06-10T01:42:37;4.43;;;4.03;;
37777;SDS011;23615;51.506;7.678;2023-06-10T01:45:02;4.45;;;4.05;;
37777;SDS011;23615;51.506;7.678;2023-06-10T01:47:28;4.53;;;4.20;;
37777;SDS011;23615;51.506;7.678;2023-06-10T01:49:54;5.33;;;4.93;;
37777;SDS011;23615;51.506;7.678;2023-06-10T01:52:19;4.63;;;4.33;;
37777;SDS011;23615;51.506;7.678;2023-06-10T01:54:45;5.40;;;4.90;;
37777;SDS011;23615;51.506;7.678;2023-06-10T01:57:10;5.00;;;4.43;;
37777;SDS011;23615;51.506;7.678;2023-06-10T01:59:35;4.20;;;3.90;;
37777;SDS011;23615;51.506;7.678;2023-06-10T02:02:02;4.72;;;4.32;;
37777;SDS011;23615;51.506;7.678;2023-06-10T02:04:28;5.10;;;4.60;;
37777;SDS011;23615;51.506;7.678;2023-06-10T02:06:53;4.90;;;4.50;;
37777;SDS011;23615;51.506;7.678;2023-06-10T02:09:20;5.25;;;4.75;;
37777;SDS011;23615;51.506;7.678;2023-06-10T02:11:47;4.50;;;4.17;;
37777;SDS011;23615;51.506;7.678;2023-06-10T02:14:15;5.03;;;4.63;;
37777;SDS011;23615;51.506;7.678;2023-06-10T02:16:41;4.75;;;4.38;;
37777;SDS011;23615;51.506;7.678;2023-06-10T02:19:06;5.20;;;4.80;;
37777;SDS011;23615;51.506;7.678;2023-06-10T02:21:32;4.90;;;4.50;;
37777;SDS011;23615;51.506;7.678;2023-06-10T02:23:59;5.03;;;4.63;;
37777;SDS011;23615;51.506;7.678;2023-06-10T02:26:25;5.07;;;4.67;;
37777;SDS011;23615;51.506;7.678;2023-06-10T02:28:50;4.23;;;3.93;;
37777;SDS011;23615;51.506;7.678;2023-06-10T02:31:16;5.30;;;4.80;;
37777;SDS011;23615;51.506;7.678;2023-06-10T02:33:42;4.65;;;4.25;;
37777;SDS011;23615;51.506;7.678;2023-06-10T02:36:08;5.23;;;4.80;;
37777;SDS011;23615;51.506;7.678;2023-06-10T02:38:38;5.35;;;4.85;;
37777;SDS011;23615;51.506;7.678;2023-06-10T02:41:03;6.90;;;5.83;;
37777;SDS011;23615;51.506;7.678;2023-06-10T02:43:28;5.43;;;4.90;;
37777;SDS011;23615;51.506;7.678;2023-06-10T02:45:54;5.13;;;4.73;;
37777;SDS011;23615;51.506;7.678;2023-06-10T02:48:19;5.10;;;4.70;;
37777;SDS011;23615;51.506;7.678;2023-06-10T02:50:44;5.63;;;5.07;;
37777;SDS011;23615;51.506;7.678;2023-06-10T02:53:10;4.37;;;4.07;;
37777;SDS011;23615;51.506;7.678;2023-06-10T02:55:35;4.90;;;4.57;;
37777;SDS011;23615;51.506;7.678;2023-06-10T02:58:00;5.00;;;4.53;;
37777;SDS011;23615;51.506;7.678;2023-06-10T03:00:27;5.40;;;4.90;;
37777;SDS011;23615;51.506;7.678;2023-06-10T03:02:53;6.57;;;6.03;;
37777;SDS011;23615;51.506;7.678;2023-06-10T03:05:22;5.60;;;5.10;;
37777;SDS011;23615;51.506;7.678;2023-06-10T03:07:48;5.30;;;4.80;;
37777;SDS011;23615;51.506;7.678;2023-06-10T03:10:14;4.90;;;4.47;;
37777;SDS011;23615;51.506;7.678;2023-06-10T03:12:40;5.25;;;4.85;;
37777;SDS011;23615;51.506;7.678;2023-06-10T03:15:05;4.67;;;4.27;;
37777;SDS011;23615;51.506;7.678;2023-06-10T03:17:31;4.90;;;4.50;;
37777;SDS011;23615;51.506;7.678;2023-06-10T03:19:57;5.20;;;4.80;;
37777;SDS011;23615;51.506;7.678;2023-06-10T03:22:22;5.10;;;4.77;;
37777;SDS011;23615;51.506;7.678;2023-06-10T03:24:47;5.50;;;4.73;;
37777;SDS011;23615;51.506;7.678;2023-06-10T03:27:15;5.32;;;4.93;;
37777;SDS011;23615;51.506;7.678;2023-06-10T03:29:41;5.60;;;5.18;;
37777;SDS011;23615;51.506;7.678;2023-06-10T03:32:07;4.95;;;4.57;;
37777;SDS011;23615;51.506;7.678;2023-06-10T03:34:32;4.45;;;4.15;;
37777;SDS011;23615;51.506;7.678;2023-06-10T03:36:58;4.87;;;4.47;;
37777;SDS011;23615;51.506;7.678;2023-06-10T03:39:24;5.00;;;4.60;;
37777;SDS011;23615;51.506;7.678;2023-06-10T03:41:50;5.35;;;4.95;;
37777;SDS011;23615;51.506;7.678;2023-06-10T03:44:16;4.90;;;4.50;;
37777;SDS011;23615;51.506;7.678;2023-06-10T03:46:41;4.73;;;4.33;;
37777;SDS011;23615;51.506;7.678;2023-06-10T03:49:07;5.63;;;5.20;;
37777;SDS011;23615;51.506;7.678;2023-06-10T03:51:32;6.30;;;5.70;;
37777;SDS011;23615;51.506;7.678;2023-06-10T03:53:58;4.97;;;4.63;;
37777;SDS011;23615;51.506;7.678;2023-06-10T03:56:23;5.65;;;5.15;;
37777;SDS011;23615;51.506;7.678;2023-06-10T03:58:48;5.97;;;5.47;;
37777;SDS011;23615;51.506;7.678;2023-06-10T04:01:14;6.33;;;5.73;;
37777;SDS011;23615;51.506;7.678;2023-06-10T04:03:39;6.77;;;6.10;;
37777;SDS011;23615;51.506;7.678;2023-06-10T04:06:06;6.40;;;5.80;;
37777;SDS011;23615;51.506;7.678;2023-06-10T04:08:32;6.20;;;5.70;;
37777;SDS011;23615;51.506;7.678;2023-06-10T04:10:57;6.95;;;6.30;;
37777;SDS011;23615;51.506;7.678;2023-06-10T04:13:23;7.60;;;6.60;;
37777;SDS011;23615;51.506;7.678;2023-06-10T04:15:48;6.17;;;5.67;;
37777;SDS011;23615;51.506;7.678;2023-06-10T04:18:13;6.93;;;6.33;;
37777;SDS011;23615;51.506;7.678;2023-06-10T04:20:39;5.40;;;4.90;;
37777;SDS011;23615;51.506;7.678;2023-06-10T04:23:05;6.17;;;5.57;;
37777;SDS011;23615;51.506;7.678;2023-06-10T04:25:30;6.37;;;5.87;;
37777;SDS011;23615;51.506;7.678;2023-06-10T04:27:56;5.77;;;5.27;;
37777;SDS011;23615;51.506;7.678;2023-06-10T04:30:21;5.50;;;5.07;;
37777;SDS011;23615;51.506;7.678;2023-06-10T04:32:47;7.40;;;6.70;;
37777;SDS011;23615;51.506;7.678;2023-06-10T04:35:12;6.22;;;5.63;;
37777;SDS011;23615;51.506;7.678;2023-06-10T04:37:39;6.28;;;5.78;;
37777;SDS011;23615;51.506;7.678;2023-06-10T04:40:05;5.50;;;5.00;;
37777;SDS011;23615;51.506;7.678;2023-06-10T04:42:31;5.63;;;5.13;;
37777;SDS011;23615;51.506;7.678;2023-06-10T04:44:56;5.22;;;4.75;;
37777;SDS011;23615;51.506;7.678;2023-06-10T04:47:22;5.32;;;4.90;;
37777;SDS011;23615;51.506;7.678;2023-06-10T04:49:47;6.10;;;5.50;;
37777;SDS011;23615;51.506;7.678;2023-06-10T04:52:13;4.97;;;4.47;;
37777;SDS011;23615;51.506;7.678;2023-06-10T04:54:38;5.30;;;4.80;;
37777;SDS011;23615;51.506;7.678;2023-06-10T04:57:04;4.55;;;4.15;;
37777;SDS011;23615;51.506;7.678;2023-06-10T04:59:31;4.22;;;3.83;;
37777;SDS011;23615;51.506;7.678;2023-06-10T05:01:56;3.90;;;3.60;;
37777;SDS011;23615;51.506;7.678;2023-06-10T05:04:22;3.60;;;3.30;;
37777;SDS011;23615;51.506;7.678;2023-06-10T05:06:47;4.43;;;3.97;;
37777;SDS011;23615;51.506;7.678;2023-06-10T05:09:12;4.90;;;3.90;;
37777;SDS011;23615;51.506;7.678;2023-06-10T05:11:38;4.27;;;3.87;;
37777;SDS011;23615;51.506;7.678;2023-06-10T05:14:03;3.67;;;3.30;;
37777;SDS011;23615;51.506;7.678;2023-06-10T05:16:28;3.43;;;3.13;;
37777;SDS011;23615;51.506;7.678;2023-06-10T05:18:54;4.30;;;3.40;;
37777;SDS011;23615;51.506;7.678;2023-06-10T05:21:19;3.63;;;3.33;;
37777;SDS011;23615;51.506;7.678;2023-06-10T05:23:45;4.47;;;3.60;;
37777;SDS011;23615;51.506;7.678;2023-06-10T05:26:11;3.77;;;3.40;;
37777;SDS011;23615;51.506;7.678;2023-06-10T05:28:36;3.80;;;3.40;;
37777;SDS011;23615;51.506;7.678;2023-06-10T05:31:02;4.10;;;3.70;;
37777;SDS011;23615;51.506;7.678;2023-06-10T05:33:27;2.93;;;2.70;;
37777;SDS011;23615;51.506;7.678;2023-06-10T05:35:53;5.07;;;3.50;;
37777;SDS011;23615;51.506;7.678;2023-06-10T05:38:18;3.57;;;2.53;;
37777;SDS011;23615;51.506;7.678;2023-06-10T05:40:43;4.28;;;3.42;;
37777;SDS011;23615;51.506;7.678;2023-06-10T05:43:09;3.03;;;2.83;;
37777;SDS011;23615;51.506;7.678;2023-06-10T05:45:35;2.97;;;2.67;;
37777;SDS011;23615;51.506;7.678;2023-06-10T05:48:02;3.45;;;3.15;;
37777;SDS011;23615;51.506;7.678;2023-06-10T05:50:27;3.20;;;2.90;;
37777;SDS011;23615;51.506;7.678;2023-06-10T05:52:53;4.78;;;3.85;;
37777;SDS011;23615;51.506;7.678;2023-06-10T05:55:19;3.33;;;3.03;;
37777;SDS011;23615;51.506;7.678;2023-06-10T05:57:45;3.75;;;3.40;;
37777;SDS011;23615;51.506;7.678;2023-06-10T06:00:10;4.75;;;4.35;;
37777;SDS011;23615;51.506;7.678;2023-06-10T06:02:36;4.43;;;4.03;;
37777;SDS011;23615;51.506;7.678;2023-06-10T06:05:02;5.93;;;4.57;;
37777;SDS011;23615;51.506;7.678;2023-06-10T06:07:27;3.65;;;3.35;;
37777;SDS011;23615;51.506;7.678;2023-06-10T06:09:52;4.00;;;3.70;;
37777;SDS011;23615;51.506;7.678;2023-06-10T06:12:18;4.33;;;3.70;;
37777;SDS011;23615;51.506;7.678;2023-06-10T06:14:43;4.40;;;4.00;;
37777;SDS011;23615;51.506;7.678;2023-06-10T06:17:09;4.10;;;3.70;;
37777;SDS011;23615;51.506;7.678;2023-06-10T06:19:35;4.77;;;3.90;;
37777;SDS011;23615;51.506;7.678;2023-06-10T06:22:06;4.47;;;4.07;;
37777;SDS011;23615;51.506;7.678;2023-06-10T06:24:31;3.55;;;3.25;;
37777;SDS011;23615;51.506;7.678;2023-06-10T06:26:57;3.60;;;3.23;;
37777;SDS011;23615;51.506;7.678;2023-06-10T06:29:22;5.20;;;4.50;;
37777;SDS011;23615;51.506;7.678;2023-06-10T06:31:47;5.87;;;4.90;;
37777;SDS011;23615;51.506;7.678;2023-06-10T06:34:13;4.87;;;4.37;;
37777;SDS011;23615;51.506;7.678;2023-06-10T06:36:38;4.30;;;3.90;;
37777;SDS011;23615;51.506;7.678;2023-06-10T06:39:03;3.83;;;3.53;;
37777;SDS011;23615;51.506;7.678;2023-06-10T06:41:28;3.50;;;3.23;;
37777;SDS011;23615;51.506;7.678;2023-06-10T06:43:54;4.17;;;3.77;;
37777;SDS011;23615;51.506;7.678;2023-06-10T06:46:20;4.75;;;3.70;;
37777;SDS011;23615;51.506;7.678;2023-06-10T06:48:47;4.60;;;3.88;;
37777;SDS011;23615;51.506;7.678;2023-06-10T06:51:12;3.67;;;3.38;;
37777;SDS011;23615;51.506;7.678;2023-06-10T06:53:38;4.27;;;3.87;;
37777;SDS011;23615;51.506;7.678;2023-06-10T06:56:09;3.85;;;3.55;;
37777;SDS011;23615;51.506;7.678;2023-06-10T06:58:34;3.50;;;3.00;;
37777;SDS011;23615;51.506;7.678;2023-06-10T07:01:00;3.83;;;3.43;;
37777;SDS011;23615;51.506;7.678;2023-06-10T07:03:25;5.13;;;4.63;;
37777;SDS011;23615;51.506;7.678;2023-06-10T07:05:51;4.47;;;3.70;;
37777;SDS011;23615;51.506;7.678;2023-06-10T07:08:16;4.60;;;3.70;;
37777;SDS011;23615;51.506;7.678;2023-06-10T07:10:41;4.43;;;3.50;;
37777;SDS011;23615;51.506;7.678;2023-06-10T07:13:07;4.97;;;4.50;;
37777;SDS011;23615;51.506;7.678;2023-06-10T07:15:32;4.33;;;3.50;;
37777;SDS011;23615;51.506;7.678;2023-06-10T07:17:58;3.85;;;3.35;;
37777;SDS011;23615;51.506;7.678;2023-06-10T07:20:23;3.53;;;2.83;;
37777;SDS011;23615;51.506;7.678;2023-06-10T07:22:49;3.40;;;3.00;;
37777;SDS011;23615;51.506;7.678;2023-06-10T07:25:14;2.80;;;2.50;;
37777;SDS011;23615;51.506;7.678;2023-06-10T07:27:40;4.00;;;3.38;;
37777;SDS011;23615;51.506;7.678;2023-06-10T07:30:06;3.30;;;2.67;;
37777;SDS011;23615;51.506;7.678;2023-06-10T07:32:33;4.65;;;3.28;;
37777;SDS011;23615;51.506;7.678;2023-06-10T07:34:58;4.23;;;3.27;;
37777;SDS011;23615;51.506;7.678;2023-06-10T07:37:24;3.15;;;2.85;;
37777;SDS011;23615;51.506;7.678;2023-06-10T07:39:49;4.63;;;3.88;;
37777;SDS011;23615;51.506;7.678;2023-06-10T07:42:14;3.80;;;3.30;;
37777;SDS011;23615;51.506;7.678;2023-06-10T07:44:40;3.70;;;3.40;;
37777;SDS011;23615;51.506;7.678;2023-06-10T07:47:05;3.93;;;3.53;;
37777;SDS011;23615;51.506;7.678;2023-06-10T07:49:31;3.20;;;2.90;;
37777;SDS011;23615;51.506;7.678;2023-06-10T07:51:56;3.20;;;2.90;;
37777;SDS011;23615;51.506;7.678;2023-06-10T07:54:22;3.42;;;3.13;;
37777;SDS011;23615;51.506;7.678;2023-06-10T07:56:47;3.17;;;2.80;;
37777;SDS011;23615;51.506;7.678;2023-06-10T07:59:13;3.57;;;3.27;;
37777;SDS011;23615;51.506;7.678;2023-06-10T08:01:39;2.60;;;2.38;;
37777;SDS011;23615;51.506;7.678;2023-06-10T08:04:05;4.35;;;3.63;;
37777;SDS011;23615;51.506;7.678;2023-06-10T08:06:30;5.20;;;3.67;;
37777;SDS011;23615;51.506;7.678;2023-06-10T08:08:56;3.60;;;3.30;;
37777;SDS011;23615;51.506;7.678;2023-06-10T08:11:21;3.93;;;3.13;;
37777;SDS011;23615;51.506;7.678;2023-06-10T08:13:46;3.47;;;2.90;;
37777;SDS011;23615;51.506;7.678;2023-06-10T08:16:11;4.47;;;2.92;;
37777;SDS011;23615;51.506;7.678;2023-06-10T08:18:37;5.73;;;3.10;;
37777;SDS011;23615;51.506;7.678;2023-06-10T08:21:02;4.33;;;2.90;;
37777;SDS011;23615;51.506;7.678;2023-06-10T08:23:27;4.17;;;2.90;;
37777;SDS011;23615;51.506;7.678;2023-06-10T08:25:53;6.60;;;3.00;;
37777;SDS011;23615;51.506;7.678;2023-06-10T08:28:18;3.08;;;2.70;;
37777;SDS011;23615;51.506;7.678;2023-06-10T08:30:43;3.80;;;3.30;;
37777;SDS011;23615;51.506;7.678;2023-06-10T08:33:09;3.43;;;2.80;;
37777;SDS011;23615;51.506;7.678;2023-06-10T08:35:34;3.13;;;2.87;;
37777;SDS011;23615;51.506;7.678;2023-06-10T08:38:00;3.35;;;2.83;;
37777;SDS011;23615;51.506;7.678;2023-06-10T08:40:25;6.70;;;3.77;;
37777;SDS011;23615;51.506;7.678;2023-06-10T08:43:00;4.23;;;3.03;;
37777;SDS011;23615;51.506;7.678;2023-06-10T08:45:32;4.55;;;3.15;;
37777;SDS011;23615;51.506;7.678;2023-06-10T08:48:00;3.22;;;2.50;;
37777;SDS011;23615;51.506;7.678;2023-06-10T08:50:31;7.22;;;3.40;;
37777;SDS011;23615;51.506;7.678;2023-06-10T08:53:00;4.33;;;3.43;;
37777;SDS011;23615;51.506;7.678;2023-06-10T08:55:27;3.17;;;2.88;;
37777;SDS011;23615;51.506;7.678;2023-06-10T08:58:00;13.23;;;3.25;;
37777;SDS011;23615;51.506;7.678;2023-06-10T09:00:26;4.83;;;2.93;;
37777;SDS011;23615;51.506;7.678;2023-06-10T09:02:53;3.55;;;2.92;;
37777;SDS011;23615;51.506;7.678;2023-06-10T09:05:20;3.37;;;2.83;;
37777;SDS011;23615;51.506;7.678;2023-06-10T09:07:45;4.17;;;3.20;;
37777;SDS011;23615;51.506;7.678;2023-06-10T09:10:12;4.40;;;2.77;;
37777;SDS011;23615;51.506;7.678;2023-06-10T09:12:37;4.07;;;2.77;;
37777;SDS011;23615;51.506;7.678;2023-06-10T09:15:03;4.13;;;2.97;;
37777;SDS011;23615;51.506;7.678;2023-06-10T09:17:29;5.43;;;2.70;;
37777;SDS011;23615;51.506;7.678;2023-06-10T09:19:55;2.60;;;2.30;;
37777;SDS011;23615;51.506;7.678;2023-06-10T09:22:22;3.58;;;2.58;;
37777;SDS011;23615;51.506;7.678;2023-06-10T09:24:48;3.13;;;2.70;;
37777;SDS011;23615;51.506;7.678;2023-06-10T09:27:13;3.93;;;2.50;;
37777;SDS011;23615;51.506;7.678;2023-06-10T09:29:52;2.90;;;2.37;;
37777;SDS011;23615;51.506;7.678;2023-06-10T09:32:18;3.42;;;3.08;;
37777;SDS011;23615;51.506;7.678;2023-06-10T09:34:44;2.75;;;2.33;;
37777;SDS011;23615;51.506;7.678;2023-06-10T09:37:10;3.38;;;2.63;;
37777;SDS011;23615;51.506;7.678;2023-06-10T09:39:38;3.35;;;2.85;;
37777;SDS011;23615;51.506;7.678;2023-06-10T09:42:25;3.20;;;2.40;;
37777;SDS011;23615;51.506;7.678;2023-06-10T09:44:50;4.03;;;2.83;;
37777;SDS011;23615;51.506;7.678;2023-06-10T09:47:20;3.20;;;2.90;;
37777;SDS011;23615;51.506;7.678;2023-06-10T09:49:47;3.17;;;2.53;;
37777;SDS011;23615;51.506;7.678;2023-06-10T09:52:13;2.75;;;2.55;;
37777;SDS011;23615;51.506;7.678;2023-06-10T09:54:38;2.97;;;2.70;;
37777;SDS011;23615;51.506;7.678;2023-06-10T09:57:07;4.77;;;3.20;;
37777;SDS011;23615;51.506;7.678;2023-06-10T09:59:33;4.15;;;2.92;;
37777;SDS011;23615;51.506;7.678;2023-06-10T10:02:08;3.50;;;2.72;;
37777;SDS011;23615;51.506;7.678;2023-06-10T10:08:27;3.63;;;2.60;;
37777;SDS011;23615;51.506;7.678;2023-06-10T10:10:53;3.30;;;2.40;;
37777;SDS011;23615;51.506;7.678;2023-06-10T10:13:20;3.28;;;2.20;;
37777;SDS011;23615;51.506;7.678;2023-06-10T10:15:45;3.40;;;3.00;;
37777;SDS011;23615;51.506;7.678;2023-06-10T10:18:12;3.80;;;2.90;;
37777;SDS011;23615;51.506;7.678;2023-06-10T10:20:43;3.70;;;3.10;;
37777;SDS011;23615;51.506;7.678;2023-06-10T10:23:13;6.03;;;3.47;;
37777;SDS011;23615;51.506;7.678;2023-06-10T10:25:49;3.00;;;2.70;;
37777;SDS011;23615;51.506;7.678;2023-06-10T10:28:18;2.75;;;2.50;;
37777;SDS011;23615;51.506;7.678;2023-06-10T10:30:47;3.30;;;2.90;;
37777;SDS011;23615;51.506;7.678;2023-06-10T10:33:36;3.65;;;3.30;;
37777;SDS011;23615;51.506;7.678;2023-06-10T10:36:10;4.22;;;3.03;;
37777;SDS011;23615;51.506;7.678;2023-06-10T10:38:37;3.53;;;3.23;;
37777;SDS011;23615;51.506;7.678;2023-06-10T10:41:02;3.30;;;3.00;;
37777;SDS011;23615;51.506;7.678;2023-06-10T10:43:30;2.95;;;2.70;;
37777;SDS011;23615;51.506;7.678;2023-06-10T10:45:59;3.33;;;3.00;;
37777;SDS011;23615;51.506;7.678;2023-06-10T10:48:26;3.05;;;2.40;;
37777;SDS011;23615;51.506;7.678;2023-06-10T10:50:57;3.67;;;2.85;;
37777;SDS011;23615;51.506;7.678;2023-06-10T10:53:23;4.03;;;2.90;;
37777;SDS011;23615;51.506;7.678;2023-06-10T10:56:00;3.40;;;2.88;;
37777;SDS011;23615;51.506;7.678;2023-06-10T10:58:30;3.13;;;2.78;;
37777;SDS011;23615;51.506;7.678;2023-06-10T11:00:57;2.88;;;2.63;;
37777;SDS011;23615;51.506;7.678;2023-06-10T11:03:22;4.47;;;2.93;;
37777;SDS011;23615;51.506;7.678;2023-06-10T11:05:54;3.20;;;2.72;;
37777;SDS011;23615;51.506;7.678;2023-06-10T11:10:57;3.17;;;2.90;;
37777;SDS011;23615;51.506;7.678;2023-06-10T11:13:23;3.33;;;3.00;;
37777;SDS011;23615;51.506;7.678;2023-06-10T11:15:51;3.45;;;2.85;;
37777;SDS011;23615;51.506;7.678;2023-06-10T11:18:21;3.03;;;2.72;;
37777;SDS011;23615;51.506;7.678;2023-06-10T11:31:18;3.20;;;3.00;;
37777;SDS011;23615;51.506;7.678;2023-06-10T11:33:45;3.50;;;3.20;;
37777;SDS011;23615;51.506;7.678;2023-06-10T11:36:12;3.28;;;2.33;;
37777;SDS011;23615;51.506;7.678;2023-06-10T11:38:43;3.87;;;2.97;;
37777;SDS011;23615;51.506;7.678;2023-06-10T11:41:09;3.30;;;2.83;;
37777;SDS011;23615;51.506;7.678;2023-06-10T11:43:35;4.55;;;3.00;;
37777;SDS011;23615;51.506;7.678;2023-06-10T11:46:01;3.50;;;3.00;;
37777;SDS011;23615;51.506;7.678;2023-06-10T11:48:27;3.87;;;2.70;;
37777;SDS011;23615;51.506;7.678;2023-06-10T11:50:55;5.87;;;3.13;;
37777;SDS011;23615;51.506;7.678;2023-06-10T11:53:20;4.97;;;3.40;;
37777;SDS011;23615;51.506;7.678;2023-06-10T11:55:46;4.23;;;3.00;;
37777;SDS011;23615;51.506;7.678;2023-06-10T11:58:19;3.45;;;3.15;;
37777;SDS011;23615;51.506;7.678;2023-06-10T12:00:53;4.33;;;3.10;;
37777;SDS011;23615;51.506;7.678;2023-06-10T12:03:19;4.10;;;2.95;;
37777;SDS011;23615;51.506;7.678;2023-06-10T12:05:57;4.05;;;3.00;;
37777;SDS011;23615;51.506;7.678;2023-06-10T12:08:27;3.92;;;2.70;;
37777;SDS011;23615;51.506;7.678;2023-06-10T12:10:52;3.50;;;2.92;;
37777;SDS011;23615;51.506;7.678;2023-06-10T12:13:18;3.10;;;2.80;;
37777;SDS011;23615;51.506;7.678;2023-06-10T12:15:44;3.20;;;2.90;;
37777;SDS011;23615;51.506;7.678;2023-06-10T12:21:01;4.22;;;3.20;;
37777;SDS011;23615;51.506;7.678;2023-06-10T12:23:28;3.13;;;2.92;;
37777;SDS011;23615;51.506;7.678;2023-06-10T12:25:54;4.15;;;2.72;;
37777;SDS011;23615;51.506;7.678;2023-06-10T12:28:23;3.10;;;2.90;;
37777;SDS011;23615;51.506;7.678;2023-06-10T12:30:49;3.78;;;2.97;;
37777;SDS011;23615;51.506;7.678;2023-06-10T12:33:18;3.83;;;2.90;;
37777;SDS011;23615;51.506;7.678;2023-06-10T12:35:51;3.83;;;3.08;;
37777;SDS011;23615;51.506;7.678;2023-06-10T12:38:24;3.20;;;2.95;;
37777;SDS011;23615;51.506;7.678;2023-06-10T12:40:54;3.00;;;2.70;;
37777;SDS011;23615;51.506;7.678;2023-06-10T12:43:22;3.55;;;3.25;;
37777;SDS011;23615;51.506;7.678;2023-06-10T12:45:48;3.17;;;2.88;;
37777;SDS011;23615;51.506;7.678;2023-06-10T12:48:23;3.30;;;2.80;;
37777;SDS011;23615;51.506;7.678;2023-06-10T12:50:55;3.40;;;3.10;;
37777;SDS011;23615;51.506;7.678;2023-06-10T12:53:22;3.57;;;3.27;;
37777;SDS011;23615;51.506;7.678;2023-06-10T12:55:48;3.95;;;3.17;;
37777;SDS011;23615;51.506;7.678;2023-06-10T12:58:14;7.30;;;3.60;;
37777;SDS011;23615;51.506;7.678;2023-06-10T13:00:40;4.55;;;3.20;;
37777;SDS011;23615;51.506;7.678;2023-06-10T13:03:07;4.35;;;3.17;;
37777;SDS011;23615;51.506;7.678;2023-06-10T13:05:32;5.57;;;3.72;;
37777;SDS011;23615;51.506;7.678;2023-06-10T13:07:58;5.68;;;3.40;;
37777;SDS011;23615;51.506;7.678;2023-06-10T13:10:24;3.80;;;3.10;;
37777;SDS011;23615;51.506;7.678;2023-06-10T13:12:49;3.43;;;3.13;;
37777;SDS011;23615;51.506;7.678;2023-06-10T13:15:15;5.93;;;3.30;;
37777;SDS011;23615;51.506;7.678;2023-06-10T13:17:42;3.25;;;2.80;;
37777;SDS011;23615;51.506;7.678;2023-06-10T13:20:09;5.13;;;3.50;;
37777;SDS011;23615;51.506;7.678;2023-06-10T13:22:34;4.57;;;3.27;;
37777;SDS011;23615;51.506;7.678;2023-06-10T13:25:02;4.43;;;3.40;;
37777;SDS011;23615;51.506;7.678;2023-06-10T13:27:28;3.58;;;2.97;;
37777;SDS011;23615;51.506;7.678;2023-06-10T13:29:53;3.30;;;3.00;;
37777;SDS011;23615;51.506;7.678;2023-06-10T13:32:19;3.80;;;3.43;;
37777;SDS011;23615;51.506;7.678;2023-06-10T13:34:44;3.47;;;3.00;;
37777;SDS011;23615;51.506;7.678;2023-06-10T13:37:10;3.43;;;3.10;;
37777;SDS011;23615;51.506;7.678;2023-06-10T13:39:37;4.05;;;2.92;;
37777;SDS011;23615;51.506;7.678;2023-06-10T13:42:03;5.10;;;3.30;;
37777;SDS011;23615;51.506;7.678;2023-06-10T13:44:28;3.65;;;3.40;;
37777;SDS011;23615;51.506;7.678;2023-06-10T13:46:55;5.07;;;3.60;;
37777;SDS011;23615;51.506;7.678;2023-06-10T13:49:21;3.60;;;3.10;;
37777;SDS011;23615;51.506;7.678;2023-06-10T13:51:46;4.63;;;3.23;;
37777;SDS011;23615;51.506;7.678;2023-06-10T13:54:12;2.80;;;2.60;;
37777;SDS011;23615;51.506;7.678;2023-06-10T13:56:39;3.83;;;3.40;;
37777;SDS011;23615;51.506;7.678;2023-06-10T13:59:04;3.22;;;2.92;;
37777;SDS011;23615;51.506;7.678;2023-06-10T14:01:30;3.80;;;3.40;;
37777;SDS011;23615;51.506;7.678;2023-06-10T14:03:55;5.07;;;3.17;;
37777;SDS011;23615;51.506;7.678;2023-06-10T14:06:21;3.40;;;3.10;;
37777;SDS011;23615;51.506;7.678;2023-06-10T14:08:47;3.88;;;3.47;;
37777;SDS011;23615;51.506;7.678;2023-06-10T14:11:12;2.73;;;2.53;;
37777;SDS011;23615;51.506;7.678;2023-06-10T14:13:38;3.33;;;3.03;;
37777;SDS011;23615;51.506;7.678;2023-06-10T14:16:04;3.33;;;3.00;;
37777;SDS011;23615;51.506;7.678;2023-06-10T14:18:29;4.30;;;3.10;;
37777;SDS011;23615;51.506;7.678;2023-06-10T14:20:55;3.42;;;2.90;;
37777;SDS011;23615;51.506;7.678;2023-06-10T14:23:20;3.00;;;2.67;;
37777;SDS011;23615;51.506;7.678;2023-06-10T14:25:46;3.80;;;3.00;;
37777;SDS011;23615;51.506;7.678;2023-06-10T14:28:11;4.07;;;3.20;;
37777;SDS011;23615;51.506;7.678;2023-06-10T14:30:36;3.57;;;2.90;;
37777;SDS011;23615;51.506;7.678;2023-06-10T14:33:02;3.27;;;3.07;;
37777;SDS011;23615;51.506;7.678;2023-06-10T14:35:27;4.60;;;2.80;;
37777;SDS011;23615;51.506;7.678;2023-06-10T14:37:52;2.90;;;2.57;;
37777;SDS011;23615;51.506;7.678;2023-06-10T14:40:18;5.67;;;2.90;;
37777;SDS011;23615;51.506;7.678;2023-06-10T14:42:43;2.97;;;2.42;;
37777;SDS011;23615;51.506;7.678;2023-06-10T14:45:08;3.43;;;3.13;;
37777;SDS011;23615;51.506;7.678;2023-06-10T14:47:35;2.23;;;2.03;;
37777;SDS011;23615;51.506;7.678;2023-06-10T14:50:00;3.30;;;3.00;;
37777;SDS011;23615;51.506;7.678;2023-06-10T14:52:26;4.32;;;2.97;;
37777;SDS011;23615;51.506;7.678;2023-06-10T14:54:51;3.17;;;2.47;;
37777;SDS011;23615;51.506;7.678;2023-06-10T14:57:16;5.10;;;3.00;;
37777;SDS011;23615;51.506;7.678;2023-06-10T14:59:42;5.07;;;2.93;;
37777;SDS011;23615;51.506;7.678;2023-06-10T15:02:07;4.37;;;2.67;;
37777;SDS011;23615;51.506;7.678;2023-06-10T15:04:32;3.67;;;2.55;;
37777;SDS011;23615;51.506;7.678;2023-06-10T15:06:58;5.20;;;2.47;;
37777;SDS011;23615;51.506;7.678;2023-06-10T15:09:23;2.75;;;2.47;;